Flight Track Log - Related Links

Times and Time Zones

All times are in EDT time to prevent confusion due to time zone crossing. See the QLK115 flight status page for this flight to view local times or setup timezone preferences in your user account.

Time Position Orientation Groundspeed Altitude Reporting Facility
EDT Latitude Longitude Course Direction KTS MPH feet Rate Location/Type
Thu 05:29:34 AM -30.4542 153.0028 206° Southwest 18,000  Level Aus ATC (Calculated)
Thu 05:30:42 AM -30.4996 152.9772 215° Southwest 189 217 8,200 -5,243 Descending Aus ATC (RADAR)
Thu 05:31:17 AM -30.5248 152.9565 215° Southwest 191 220 9,000 1,543 Climbing Aus ATC (RADAR)
Thu 05:31:52 AM -30.5493 152.9354 216° Southwest 189 217 10,000 1,543 Climbing Aus ATC (RADAR)
Thu 05:32:27 AM -30.5757 152.9170 211° Southwest 190 219 10,800 1,314 Climbing Aus ATC (RADAR)
Thu 05:33:37 AM -30.6254 152.8741 217° Southwest 196 226 12,300 1,314 Climbing Aus ATC (RADAR)
Thu 05:34:12 AM -30.6519 152.8524 215° Southwest 200 230 13,100 1,200 Climbing Aus ATC (RADAR)
Thu 05:34:57 AM -30.6866 152.8234 216° Southwest 204 235 13,900 1,257 Climbing Aus ATC (RADAR)
Thu 05:35:57 AM -30.7339 152.7842 215° Southwest 210 242 15,300 1,257 Climbing Aus ATC (RADAR)
Thu 05:36:42 AM -30.7704 152.7542 215° Southwest 216 249 16,100 1,200 Climbing Aus ATC (RADAR)
Thu 05:37:17 AM -30.7983 152.7316 215° Southwest 211 243 16,900 1,146 Climbing Aus ATC (RADAR)
Thu 05:38:11 AM -30.8425 152.6948 216° Southwest 214 246 17,800 789 Climbing Aus ATC (RADAR)
Thu 05:39:11 AM -30.8925 152.6540 215° Southwest 225 259 18,400 343 Climbing Aus ATC (RADAR)
Thu 05:39:56 AM -30.9340 152.6191 216° Southwest 247 284 18,400  Level Aus ATC (RADAR)
Thu 05:40:36 AM -30.9739 152.5873 214° Southwest 260 299 18,400  Level Aus ATC (RADAR)
Thu 05:41:16 AM -31.0139 152.5547 215° Southwest 264 304 18,400  Level Aus ATC (RADAR)
Thu 05:42:16 AM -31.0747 152.5042 215° Southwest 270 311 18,400  Level Aus ATC (RADAR)
Thu 05:43:06 AM -31.1256 152.4616 216° Southwest 271 312 18,400  Level Aus ATC (RADAR)
Thu 05:44:06 AM -31.1872 152.4112 215° Southwest 274 315 18,400  Level Aus ATC (RADAR)
Thu 05:44:51 AM -31.2319 152.3730 216° Southwest 267 307 18,400  Level Aus ATC (RADAR)
Thu 05:45:26 AM -31.2674 152.3440 215° Southwest 269 310 18,400  Level Aus ATC (RADAR)
Thu 05:46:01 AM -31.3029 152.3146 215° Southwest 270 311 18,400  Level Aus ATC (RADAR)
Thu 05:46:36 AM -31.3393 152.2848 215° Southwest 274 315 18,400  Level Aus ATC (RADAR)
Thu 05:47:11 AM -31.3734 152.2552 217° Southwest 265 305 18,400  Level Aus ATC (RADAR)
Thu 05:47:55 AM -31.4189 152.2174 215° Southwest 267 307 18,400  Level Aus ATC (RADAR)
Thu 05:48:35 AM -31.4592 152.1837 215° Southwest 268 308 18,400  Level Aus ATC (RADAR)
Thu 05:49:10 AM -31.4946 152.1537 216° Southwest 269 310 18,400  Level Aus ATC (RADAR)
Thu 05:49:55 AM -31.5403 152.1158 215° Southwest 268 308 18,400  Level Aus ATC (RADAR)
Thu 05:50:55 AM -31.6016 152.0649 215° Southwest 270 311 18,400  Level Aus ATC (RADAR)
Thu 05:51:35 AM -31.6423 152.0307 216° Southwest 271 312 18,400  Level Aus ATC (RADAR)
Thu 05:52:10 AM -31.6777 152.0009 216° Southwest 270 311 18,400  Level Aus ATC (RADAR)
Thu 05:52:50 AM -31.7186 151.9666 216° Southwest 270 311 18,400  Level Aus ATC (RADAR)
Thu 05:53:25 AM -31.7540 151.9363 216° Southwest 270 311 18,400  Level Aus ATC (RADAR)
Thu 05:54:00 AM -31.7895 151.9062 216° Southwest 270 311 18,400  Level Aus ATC (RADAR)
Thu 05:54:45 AM -31.8354 151.8676 216° Southwest 272 313 18,400  Level Aus ATC (RADAR)
Thu 05:55:44 AM -31.8967 151.8158 216° Southwest 272 313 18,400  Level Aus ATC (RADAR)
Thu 05:56:33 AM -31.9443 151.7762 215° Southwest 268 308 18,400  Level Aus ATC (RADAR)
Thu 05:57:07 AM -31.9798 151.7457 216° Southwest 267 307 18,400  Level Aus ATC (RADAR)
Thu 05:57:43 AM -32.0156 151.7156 216° Southwest 268 308 18,400  Level Aus ATC (RADAR)
Thu 05:58:19 AM -32.0549 151.6823 216° Southwest 271 312 18,400  Level Aus ATC (RADAR)
Thu 05:59:19 AM -32.1162 151.6302 216° Southwest 272 313 18,400  Level Aus ATC (RADAR)
Thu 05:59:59 AM -32.1569 151.5958 216° Southwest 271 312 18,400  Level Aus ATC (RADAR)
Thu 06:00:35 AM -32.1890 151.5685 216° Southwest 268 308 18,400  Level Aus ATC (RADAR)
Thu 06:01:12 AM -32.2298 151.5336 216° Southwest 268 308 18,400  Level Aus ATC (RADAR)
Thu 06:01:49 AM -32.2691 151.5002 216° Southwest 272 313 18,400  Level Aus ATC (RADAR)
Thu 06:02:24 AM -32.3047 151.4696 216° Southwest 273 314 18,400  Level Aus ATC (RADAR)
Thu 06:03:04 AM -32.3453 151.4348 216° Southwest 273 314 18,400  Level Aus ATC (RADAR)
Thu 06:03:34 AM -32.3758 151.4087 216° Southwest 272 313 18,400  Level Aus ATC (RADAR)
Thu 06:04:08 AM -32.4116 151.3782 216° Southwest 272 313 18,400  Level Aus ATC (RADAR)
Thu 06:04:43 AM -32.4475 151.3476 216° Southwest 273 314 18,400  Level Aus ATC (RADAR)
Thu 06:05:23 AM -32.4882 151.3125 216° Southwest 273 314 18,400  Level Aus ATC (RADAR)
Thu 06:05:58 AM -32.5242 151.2817 216° Southwest 275 316 18,400  Level Aus ATC (RADAR)
Thu 06:06:43 AM -32.5764 151.2561 202° Southwest 275 316 18,400  Level Aus ATC (RADAR)
Thu 06:07:43 AM -32.6560 151.2526 182° South 282 325 18,400  Level Aus ATC (RADAR)
Thu 06:08:23 AM -32.7085 151.2488 183° South 281 323 18,400  Level Aus ATC (RADAR)
Thu 06:09:23 AM -32.7876 151.2447 183° South 281 323 18,400  Level Aus ATC (RADAR)
Thu 06:10:03 AM -32.8401 151.2417 183° South 281 323 18,400  Level Aus ATC (RADAR)
Thu 06:10:38 AM -32.8861 151.2392 183° South 283 326 18,400  Level Aus ATC (RADAR)
Thu 06:11:13 AM -32.9321 151.2368 183° South 282 325 18,400  Level Aus ATC (RADAR)
Thu 06:11:48 AM -32.9779 151.2345 182° South 280 322 18,400  Level Aus ATC (RADAR)
Thu 06:12:23 AM -33.0243 151.2320 183° South 283 326 18,400 -987 Level Aus ATC (RADAR)
Thu 06:13:07 AM -33.0847 151.2279 183° South 289 333 17,100 -1,630 Descending Aus ATC (RADAR)
Thu 06:13:55 AM -33.1483 151.2248 182° South 294 338 15,900 -1,573 Descending Aus ATC (RADAR)
Thu 06:14:50 AM -33.2226 151.2220 182° South 293 337 14,400 -1,588 Descending Aus ATC (RADAR)
Thu 06:15:37 AM -33.2876 151.2181 183° South 285 328 13,200 -1,482 Descending Aus ATC (RADAR)
Thu 06:16:15 AM -33.3359 151.2150 183° South 287 330 12,300 -1,624 Descending Aus ATC (RADAR)
Thu 06:17:02 AM -33.3982 151.2107 183° South 268 308 10,900 -1,829 Descending Aus ATC (RADAR)
Thu 06:17:37 AM -33.4448 151.2092 182° South 275 316 9,800 -1,613 Descending Aus ATC (RADAR)
Thu 06:18:35 AM -33.5170 151.2048 183° South 272 313 8,400 -1,400 Descending Aus ATC (RADAR)
Thu 06:19:37 AM -33.5952 151.2005 183° South 261 300 7,000 -981 Descending Aus ATC (RADAR)
Thu 06:20:19 AM -33.6465 151.1980 182° South 264 304 6,700 -468 Descending Aus ATC (RADAR)
Thu 06:20:54 AM -33.6889 151.1955 183° South 263 303 6,400 -514 Descending Aus ATC (RADAR)
Thu 06:21:29 AM -33.7304 151.2025 172° South 260 299 6,100 -343 Descending Aus ATC (RADAR)
Thu 06:22:04 AM -33.7702 151.2181 162° South 256 295 6,000 -86 Descending Aus ATC (RADAR)
Thu 06:22:39 AM -33.8088 151.2348 160° South 253 291 6,000  Level Aus ATC (RADAR)
Thu 06:23:14 AM -33.8442 151.2605 149° Southeast 252 290 6,000  Level Aus ATC (RADAR)
Thu 06:23:49 AM -33.8808 151.2832 153° Southeast 253 291 6,000  Level Aus ATC (RADAR)
Thu 06:24:21 AM -33.9165 151.3029 155° Southeast 248 285 6,000  Level Aus ATC (RADAR)
Thu 06:24:59 AM -33.9548 151.3271 152° Southeast 252 290 6,000  Level Aus ATC (RADAR)
Thu 06:25:29 AM -33.9855 151.3440 155° Southeast 244 281 6,000 -448 Level Aus ATC (RADAR)
Thu 06:26:06 AM -34.0264 151.3518 171° South 228 262 5,500 -1,029 Descending Aus ATC (RADAR)
Thu 06:26:39 AM -34.0599 151.3622 166° South 234 269 4,800 -831 Descending Aus ATC (RADAR)
Thu 06:27:11 AM -34.0923 151.3765 160° South 213 245 4,600 -179 Descending Aus ATC (RADAR)
Thu 06:27:46 AM -34.1205 151.3628 202° Southwest 198 228 4,600 -83 Level Aus ATC (RADAR)
Thu 06:28:23 AM -34.1415 151.3323 230° Southwest 187 215 4,500 -167 Descending Aus ATC (RADAR)
Thu 06:28:58 AM -34.1601 151.3045 231° Southwest 180 207 4,400 -740 Descending Aus ATC (RADAR)
Thu 06:29:36 AM -34.1432 151.2713 302° West 191 220 3,600 -1,185 Descending Aus ATC (RADAR)
Thu 06:30:19 AM -34.1177 151.2437 318° Northwest 173 199 2,800 -824 Descending Aus ATC (RADAR)
Thu 06:31:18 AM -34.0803 151.2226 335° Northwest 150 173 2,200 -684 Descending Aus ATC (RADAR)
Thu 06:32:13 AM -34.0450 151.2131 347° North 142 163 1,500 -733 Descending Aus ATC (RADAR)
Thu 06:32:48 AM -34.0241 151.2074 347° North 131 151 1,100 -720 Descending Aus ATC (RADAR)
Thu 06:33:28 AM -34.0033 151.2023 349° North 115 132 600 -545 Descending Aus ATC (RADAR)
Thu 06:34:05 AM -33.9859 151.1977 348° North 98 113 400 -417 Descending Aus ATC (RADAR)
Thu 06:34:40 AM -33.9703 151.1939 348° North 96 110 100 -514 Descending Aus ATC (RADAR)

Login

Don't have an account? Register now (free) for customized features, flight alerts, and more!